Topock, AZ (86436)

11:06 PM MST on June 28, 2017 (GMT -0700)
Az Route 66, Mile 6 | | Change Station
Active Advisory: Fire Weather Warning

Elev 679 ft 34.79 °N, 114.48 °W | Updated 7 seconds ago

Clear
Clear
97.0 °F
Feels Like 92 °F
N
9.8
Wind Variable Wind from SE
Gusts 12.3 mph

Today
High -- | Low -- °F
--% Chance of Precip.
Yesterday
High -- | Low -- °F
Precip. -- in
Pressure 29.54 in
Visibility 10.0 miles
Clouds Clear
Heat Index 92 °F
Dew Point 32 °F
Humidity 10%
Rainfall 0.00 in
Snow Depth Not available.
5:27 AM 7:55 PM
Waxing Crescent, 32% visible
METAR KEED 290556Z AUTO 23009KT 10SM CLR 37/M10 A2966 RMK AO2 SLP003 T03721100 10444 20372 52009
Pressure 29.54 in
Visibility 10.0 miles
Clouds Clear
Heat Index 92 °F
Dew Point 32 °F
Humidity 10%
Rainfall 0.00 in
Snow Depth Not available.
5:27 AM 7:55 PM
Waxing Crescent, 32% visible
METAR KEED 290556Z AUTO 23009KT 10SM CLR 37/M10 A2966 RMK AO2 SLP003 T03721100 10444 20372 52009

Get Your Daily Forecast Email!

Thanks for signing up!

Be on the lookout for a verification email in your inbox.

You'll start receiving severe weather alerts in your inbox..

×

10-Day Weather Forecast

Almanac

Astronomy

Jun. 28, 2017 Rise Set
Actual Time
Civil Twilight
Nautical Twilight
Astronomical Twilight
Moon
Length of Visible Light
Length of Day
Tomorrow will be .
, % of the Moon is Illuminated

Today's Extremes

State Highs State Lows

Community

WunderPhotos

Category 6

Welcome to Category 6. This is the collective home for Weather Underground's featured writeups by Dr. Jeff Masters (right), Bob Henson (left), Chris Burt, and other regular contributors.

Nearby

Air Quality

  Air Quality AQ Index Pollutant
Not available.

Snow Depth

Station Depth Elevation

Earthquake Activity

City Distance Mag. Time & Date
Minimum magnitude displayed is 2.5.

Coastal Water Temperatures

Place Temperature

Stations

Nearby Weather Stations

Station Location Temp. Windchill Dew Point Humidity Wind Precip. Elev Updated Type
                   

Watches & Warnings

Fire Weather Warning
Issued: 7:40 PM MDT Jun. 28, 2017 – National Weather Service

... Red flag warning now in effect until 9 PM MST Thursday for
strong winds and low rh for fire weather zone 102...

* affected area... in Arizona... fire weather zone 102.

* Timing... through this evening.

* Wind... southwest winds 20 to 25 mph with gusts around 30-35
mph.

* Humidity... minimum humidity mainly 4 to 8 percent.

* Impacts... any fires that develop will likely spread rapidly.
Outdoor burning is not recommended.

Precautionary/preparedness actions...

A red flag warning means that critical fire weather conditions
are either occurring now... .or will shortly. A combination of
strong winds... low relative humidity... and warm temperatures can
contribute to extreme fire behavior.




Weather.Gov/lasvegas